Time;durP1;ratioP1;P1;durP2;ratioP2;P2;SDS_P1;SDS_P2;PMS_P1;PMS_P2;Temp;Humidity;BMP_temperature;BMP_pressure;BME280_temperature;BME280_humidity;BME280_pressure;Samples;Min_cycle;Max_cycle;Signal;HPM_P1;HPM_P2
2020/12/20 00:01:46;;;;;;;;;83.25;58.00;;;;;2.63;94.46;101013.69;4955452;28;8870;-63
2020/12/20 00:04:14;;;;;;;;;74.75;53.50;;;;;2.57;94.07;101011.09;4954593;28;9000;-63
2020/12/20 00:06:44;;;;;;;;;73.50;56.25;;;;;2.59;94.17;101012.84;4939345;28;8960;-63
2020/12/20 00:09:19;;;;;;;;;77.75;51.75;;;;;2.65;94.13;101003.97;4954782;28;8854;-63
2020/12/20 00:11:56;;;;;;;;;74.50;53.75;;;;;2.63;93.81;101019.00;4955227;28;8862;-63
2020/12/20 00:14:26;;;;;;;;;70.25;52.25;;;;;2.59;93.91;101009.31;4933979;29;8892;-63
2020/12/20 00:17:12;;;;;;;;;77.25;54.50;;;;;2.73;93.84;101007.44;4964701;28;8924;-63
2020/12/20 00:19:39;;;;;;;;;62.75;48.75;;;;;2.60;94.25;101008.41;4954909;28;8888;-63
2020/12/20 00:22:10;;;;;;;;;65.50;47.50;;;;;2.56;94.13;101004.06;4954439;28;8890;-63
2020/12/20 00:24:38;;;;;;;;;73.00;51.25;;;;;2.63;94.30;101005.75;4955845;28;8866;-63
2020/12/20 00:27:06;;;;;;;;;74.25;48.50;;;;;2.61;94.41;101007.53;4955250;28;8858;-63
2020/12/20 00:29:34;;;;;;;;;77.75;55.25;;;;;2.59;94.28;101004.03;4953957;28;8878;-63
2020/12/20 00:32:03;;;;;;;;;73.75;53.00;;;;;2.53;94.63;101001.44;4937879;28;8893;-63
2020/12/20 00:34:31;;;;;;;;;83.25;55.25;;;;;2.55;94.21;101008.44;4955014;28;9601;-63
2020/12/20 00:36:58;;;;;;;;;67.00;47.25;;;;;2.50;94.70;101002.31;4953395;28;8885;-63
2020/12/20 00:39:25;;;;;;;;;77.00;48.25;;;;;2.54;94.83;101011.13;4954840;28;8874;-63
2020/12/20 00:41:58;;;;;;;;;73.25;52.50;;;;;2.53;95.02;101009.38;4937765;28;8872;-63
2020/12/20 00:44:29;;;;;;;;;73.75;53.25;;;;;2.70;94.82;101007.47;4954993;28;8862;-63
2020/12/20 00:46:59;;;;;;;;;88.25;59.00;;;;;2.60;94.72;101011.06;4955039;28;8874;-63
2020/12/20 00:49:28;;;;;;;;;69.75;54.75;;;;;2.61;94.57;101010.19;4953979;28;8866;-63
2020/12/20 00:51:59;;;;;;;;;72.00;52.75;;;;;2.55;94.57;101019.03;4954235;28;8940;-63
2020/12/20 00:54:27;;;;;;;;;78.00;55.25;;;;;2.58;94.94;101012.84;4954447;28;8858;-63
2020/12/20 00:56:54;;;;;;;;;71.75;48.25;;;;;2.54;94.86;101011.13;4954741;28;8862;-63
2020/12/20 00:59:22;;;;;;;;;62.50;45.75;;;;;2.57;95.00;101006.66;4937301;28;8874;-63
2020/12/20 01:01:50;;;;;;;;;69.25;51.50;;;;;2.61;94.67;101008.41;4953527;28;8876;-63
2020/12/20 01:04:17;;;;;;;;;72.25;51.50;;;;;2.59;95.28;101006.66;4954116;28;8859;-63
2020/12/20 01:06:44;;;;;;;;;71.75;52.25;;;;;2.66;94.88;101010.13;4954247;28;8980;-63
2020/12/20 01:09:15;;;;;;;;;69.00;48.25;;;;;2.61;94.82;101002.25;4953884;28;8858;-63
2020/12/20 01:11:43;;;;;;;;;69.50;52.25;;;;;2.53;94.78;101009.38;4953401;28;8886;-63
2020/12/20 01:14:10;;;;;;;;;78.75;49.50;;;;;2.56;95.16;101004.06;4953651;28;8862;-63
2020/12/20 01:16:38;;;;;;;;;81.00;55.50;;;;;2.77;94.70;101001.22;4953563;28;8905;-63
2020/12/20 01:19:04;;;;;;;;;82.00;55.75;;;;;2.64;94.81;101004.88;4953742;28;8886;-63
2020/12/20 01:21:34;;;;;;;;;81.00;58.00;;;;;2.67;94.80;101003.97;4953783;28;8875;-63
2020/12/20 01:24:02;;;;;;;;;76.25;53.75;;;;;2.54;95.24;101004.03;4952685;28;9552;-63
2020/12/20 01:26:29;;;;;;;;;66.00;54.00;;;;;2.60;94.72;100995.16;4953460;28;8858;-63
2020/12/20 01:28:57;;;;;;;;;75.00;57.50;;;;;2.61;95.21;100996.94;4954057;28;8874;-63
2020/12/20 01:31:25;;;;;;;;;77.75;56.75;;;;;2.61;94.86;100999.59;4936220;28;9301;-63
2020/12/20 01:33:52;;;;;;;;;70.25;49.00;;;;;2.56;95.54;100988.13;4953298;28;8850;-63
2020/12/20 01:36:19;;;;;;;;;82.50;59.00;;;;;2.60;95.20;100990.72;4953359;28;8896;-63
2020/12/20 01:38:47;;;;;;;;;78.50;53.25;;;;;2.64;95.20;100981.88;4953641;28;8870;-63
2020/12/20 01:41:13;;;;;;;;;68.25;51.50;;;;;2.61;95.02;100986.34;4953592;28;8890;-63
2020/12/20 01:43:48;;;;;;;;;71.00;52.25;;;;;2.56;95.41;100991.66;4952820;28;8889;-63
2020/12/20 01:46:21;;;;;;;;;76.00;52.00;;;;;2.69;95.22;100981.84;4952887;28;8870;-62
2020/12/20 01:48:50;;;;;;;;;79.00;54.75;;;;;2.62;95.16;100970.41;4953374;28;8854;-63
2020/12/20 01:51:17;;;;;;;;;67.50;51.50;;;;;2.59;95.05;100977.50;4952835;28;8882;-63
2020/12/20 01:53:47;;;;;;;;;65.75;51.00;;;;;2.64;95.05;100981.00;4953112;28;8862;-63
2020/12/20 01:56:14;;;;;;;;;75.50;53.50;;;;;2.67;95.24;100986.28;4936882;28;8993;-63
2020/12/20 01:58:41;;;;;;;;;79.75;58.25;;;;;2.58;95.51;100981.03;4952844;28;8867;-63
2020/12/20 02:01:09;;;;;;;;;72.50;53.25;;;;;2.56;95.32;100977.53;4952009;28;8977;-63
2020/12/20 02:03:37;;;;;;;;;73.25;51.50;;;;;2.78;95.11;100980.88;4952951;28;8861;-63
2020/12/20 02:06:05;;;;;;;;;73.00;53.00;;;;;2.65;95.18;100977.44;4952744;28;9620;-63
2020/12/20 02:08:35;;;;;;;;;80.50;56.00;;;;;2.65;95.03;100982.75;4951952;28;9910;-62
2020/12/20 02:11:18;;;;;;;;;78.50;60.00;;;;;2.90;94.64;100970.16;4953697;29;8870;-63
2020/12/20 02:13:50;;;;;;;;;84.75;59.25;;;;;2.63;94.80;100973.91;4953630;29;8874;-63
2020/12/20 02:16:19;;;;;;;;;27.25;10.00;;;;;2.55;94.58;100970.47;4953068;29;8882;-63
2020/12/20 02:18:48;;;;;;;;;70.50;54.00;;;;;2.52;95.24;100971.34;4953329;29;8917;-63
2020/12/20 02:21:21;;;;;;;;;85.25;57.50;;;;;2.63;95.08;100971.28;4952897;29;8933;-63
2020/12/20 02:23:50;;;;;;;;;74.50;53.25;;;;;2.55;94.91;100973.09;4952727;29;8862;-63
2020/12/20 02:26:23;;;;;;;;;69.50;52.75;;;;;2.61;95.15;100975.72;4952288;29;8901;-63
2020/12/20 02:28:55;;;;;;;;;78.50;56.00;;;;;2.69;95.30;100973.88;4953160;28;9033;-63
2020/12/20 02:31:24;;;;;;;;;77.00;55.00;;;;;2.57;94.98;100964.25;4936928;29;8866;-63
2020/12/20 02:33:51;;;;;;;;;76.25;57.25;;;;;2.54;95.33;100968.72;4934676;29;8864;-63
2020/12/20 02:36:18;;;;;;;;;77.50;53.25;;;;;2.65;94.74;100974.78;4953804;28;8850;-63
2020/12/20 02:38:46;;;;;;;;;74.00;55.00;;;;;2.61;94.83;100975.72;4956430;28;8875;-63
2020/12/20 02:41:13;;;;;;;;;84.50;58.25;;;;;2.69;94.59;100970.38;4956319;28;8886;-63
2020/12/20 02:43:39;;;;;;;;;81.50;60.25;;;;;2.70;94.71;100965.03;4955758;28;8963;-63
2020/12/20 02:46:07;;;;;;;;;83.25;53.00;;;;;2.76;94.66;100970.28;4957010;28;8846;-63
2020/12/20 02:48:34;;;;;;;;;85.25;61.25;;;;;2.81;94.45;100968.47;4956278;28;8878;-63
2020/12/20 02:51:00;;;;;;;;;72.75;51.25;;;;;2.72;94.29;100971.22;4956385;28;8978;-63
2020/12/20 02:53:27;;;;;;;;;75.50;56.50;;;;;2.62;94.38;100969.53;4956106;28;8929;-63
2020/12/20 02:55:54;;;;;;;;;77.75;53.75;;;;;2.67;94.27;100966.84;4955880;28;8851;-63
2020/12/20 02:58:21;;;;;;;;;82.25;55.75;;;;;2.69;94.48;100971.25;4956321;28;8879;-63
2020/12/20 03:00:48;;;;;;;;;69.50;51.50;;;;;2.90;94.08;100977.22;4955982;28;8850;-63
2020/12/20 03:03:15;;;;;;;;;70.50;48.25;;;;;2.68;94.14;100980.06;4956262;28;8863;-63
2020/12/20 03:05:42;;;;;;;;;70.25;50.25;;;;;2.67;94.62;100980.97;4956798;28;8945;-63
2020/12/20 03:08:09;;;;;;;;;69.50;53.25;;;;;2.64;94.05;100975.69;4956886;28;8870;-63
2020/12/20 03:10:36;;;;;;;;;80.75;54.50;;;;;2.95;93.95;100970.09;4955969;28;8861;-63
2020/12/20 03:13:04;;;;;;;;;77.25;57.50;;;;;2.69;94.10;100973.88;4956144;28;8854;-63
2020/12/20 03:15:31;;;;;;;;;100.00;64.50;;;;;2.73;93.71;100977.38;4959995;28;8884;-63
2020/12/20 03:17:58;;;;;;;;;78.25;57.75;;;;;2.62;94.13;100977.47;4956214;28;8869;-63
2020/12/20 03:20:25;;;;;;;;;77.50;53.00;;;;;2.69;94.13;100967.72;4955853;28;8899;-63
2020/12/20 03:22:51;;;;;;;;;75.50;53.25;;;;;2.81;93.76;100972.88;4945210;28;8873;-63
2020/12/20 03:25:18;;;;;;;;;73.00;52.00;;;;;2.67;94.24;100973.03;4956529;28;8852;-62
2020/12/20 03:27:52;;;;;;;;;73.00;54.75;;;;;2.83;94.24;100974.63;4955969;28;8941;-63
2020/12/20 03:30:20;;;;;;;;;71.50;54.00;;;;;2.70;94.02;100975.63;4955632;28;9599;-63
2020/12/20 03:32:47;;;;;;;;;75.00;54.75;;;;;2.64;93.95;100975.69;4954861;28;8850;-63
2020/12/20 03:35:15;;;;;;;;;83.50;54.50;;;;;2.68;94.10;100972.13;4956067;28;9687;-63
2020/12/20 03:37:52;;;;;;;;;73.25;52.00;;;;;2.72;94.00;100975.63;4956176;28;8921;-63
2020/12/20 03:40:21;;;;;;;;;68.50;53.00;;;;;2.81;94.01;100979.06;4955856;28;8841;-63
2020/12/20 03:42:49;;;;;;;;;75.50;50.75;;;;;2.78;93.98;100978.22;4955458;28;8868;-63
2020/12/20 03:45:18;;;;;;;;;71.00;49.25;;;;;2.62;94.02;100969.53;4970574;28;8900;-62
2020/12/20 03:47:46;;;;;;;;;71.25;48.25;;;;;2.71;94.11;100966.78;4969543;28;8845;-63
2020/12/20 03:50:14;;;;;;;;;69.00;50.75;;;;;2.62;94.34;100964.22;4955721;28;8921;-63
2020/12/20 03:52:42;;;;;;;;;73.00;54.75;;;;;2.72;94.21;100967.69;4950788;29;8839;-63
2020/12/20 03:55:09;;;;;;;;;68.50;49.50;;;;;2.76;94.22;100970.28;4936645;29;8864;-63
2020/12/20 03:57:35;;;;;;;;;69.50;50.00;;;;;2.82;93.88;100974.66;4940109;28;8845;-64
2020/12/20 04:00:05;;;;;;;;;73.25;49.25;;;;;2.70;94.28;100978.28;4955398;28;8849;-63
2020/12/20 04:02:32;;;;;;;;;66.75;51.50;;;;;2.70;94.21;100975.63;4970136;28;8849;-63
2020/12/20 04:04:59;;;;;;;;;71.75;53.50;;;;;2.75;93.65;100976.47;4955605;28;8849;-63
2020/12/20 04:07:26;;;;;;;;;77.75;55.25;;;;;2.69;94.32;100973.03;4955071;28;8865;-63
2020/12/20 04:09:53;;;;;;;;;72.00;51.50;;;;;2.78;94.15;100984.41;4954756;28;8869;-63
2020/12/20 04:12:20;;;;;;;;;78.50;52.50;;;;;2.84;94.02;100972.84;4955059;28;8877;-63
2020/12/20 04:14:47;;;;;;;;;73.75;50.75;;;;;2.81;93.89;100973.75;4954824;28;9008;-63
2020/12/20 04:17:14;;;;;;;;;74.00;52.75;;;;;2.63;94.33;100973.91;4955261;28;8922;-63
2020/12/20 04:19:40;;;;;;;;;55.75;50.00;;;;;2.72;94.17;100976.50;4938083;28;8858;-63
2020/12/20 04:22:08;;;;;;;;;71.25;55.00;;;;;2.72;94.45;100973.84;4954998;28;8916;-63
2020/12/20 04:24:34;;;;;;;;;70.75;49.50;;;;;2.66;94.38;100968.63;4942237;28;8861;-63
2020/12/20 04:27:01;;;;;;;;;73.75;49.00;;;;;2.68;94.13;100969.47;4954842;28;8870;-63
2020/12/20 04:29:28;;;;;;;;;65.00;48.25;;;;;2.64;94.51;100973.03;4955026;28;8992;-63
2020/12/20 04:31:55;;;;;;;;;75.50;52.75;;;;;2.66;94.42;100973.91;4954459;28;8956;-63
2020/12/20 04:34:22;;;;;;;;;72.00;47.75;;;;;2.72;94.21;100973.00;4954970;28;8850;-63
2020/12/20 04:36:49;;;;;;;;;73.25;52.75;;;;;2.65;94.62;100972.16;4954275;28;8870;-63
2020/12/20 04:39:16;;;;;;;;;72.75;53.50;;;;;2.71;94.52;100982.69;4954792;28;8851;-63
2020/12/20 04:41:43;;;;;;;;;66.50;46.50;;;;;2.72;94.64;100983.59;4954234;28;8889;-63
2020/12/20 04:44:11;;;;;;;;;67.25;50.25;;;;;2.73;94.51;100978.25;4954305;28;8877;-63
2020/12/20 04:46:38;;;;;;;;;70.50;47.00;;;;;2.75;94.36;100988.88;4954625;28;8873;-63
2020/12/20 04:49:05;;;;;;;;;74.25;53.00;;;;;2.73;94.06;100986.22;4953418;28;8893;-63
2020/12/20 04:51:50;;;;;;;;;74.25;52.25;;;;;2.71;94.38;100989.78;4937313;28;8960;-63
2020/12/20 04:54:17;;;;;;;;;79.25;56.75;;;;;2.77;94.39;100976.47;4953797;28;8892;-63
2020/12/20 04:56:45;;;;;;;;;67.75;45.75;;;;;2.67;94.64;100980.09;4954368;28;8940;-63
2020/12/20 04:59:13;;;;;;;;;73.75;55.50;;;;;2.61;95.25;100981.03;4953987;28;9774;-63
2020/12/20 05:01:40;;;;;;;;;74.50;52.25;;;;;2.62;95.13;100978.34;4937769;28;8884;-62
2020/12/20 05:04:07;;;;;;;;;73.50;51.75;;;;;2.84;94.92;100978.16;4953451;28;8858;-62
2020/12/20 05:06:34;;;;;;;;;72.25;52.25;;;;;2.68;94.93;100979.19;4934988;29;8880;-62
2020/12/20 05:09:07;;;;;;;;;68.50;50.00;;;;;2.67;94.70;100975.66;4947298;28;8938;-63
2020/12/20 05:11:39;;;;;;;;;72.00;49.00;;;;;2.80;94.66;100977.31;4954165;28;8982;-63
2020/12/20 05:14:07;;;;;;;;;71.50;49.50;;;;;2.66;94.95;100973.00;4953081;28;8903;-63
2020/12/20 05:16:37;;;;;;;;;72.25;49.25;;;;;2.59;94.88;100977.50;4953778;28;8893;-63
2020/12/20 05:19:07;;;;;;;;;84.75;54.75;;;;;2.63;95.11;100987.19;4953688;28;8859;-63
2020/12/20 05:21:35;;;;;;;;;75.50;54.50;;;;;2.69;94.82;100991.59;4953208;28;8908;-63
2020/12/20 05:24:28;;;;;;;;;68.25;44.00;;;;;2.70;95.10;100990.66;4952679;28;8866;-62
2020/12/20 05:26:55;;;;;;;;;78.25;54.75;;;;;2.60;95.02;100990.72;4953934;28;8946;-63
2020/12/20 05:29:28;;;;;;;;;64.25;51.25;;;;;2.63;95.00;100988.09;4954344;28;8882;-63
2020/12/20 05:31:56;;;;;;;;;71.50;51.00;;;;;2.64;94.73;100988.97;4953664;28;8919;-63
2020/12/20 05:34:23;;;;;;;;;68.50;51.50;;;;;2.80;94.62;100990.59;4953656;28;9707;-63
2020/12/20 05:36:50;;;;;;;;;70.75;52.50;;;;;2.58;95.29;100995.19;4953463;28;8960;-63
2020/12/20 05:39:19;;;;;;;;;72.25;51.75;;;;;2.64;95.30;100991.59;4952402;28;8873;-63
2020/12/20 05:41:49;;;;;;;;;67.00;49.75;;;;;2.55;95.18;100996.97;4953240;28;9627;-62
2020/12/20 05:44:23;;;;;;;;;76.00;54.00;;;;;2.70;94.66;101001.28;4952878;28;8870;-62
2020/12/20 05:46:51;;;;;;;;;73.25;53.00;;;;;2.57;95.08;100996.06;4953321;28;8846;-63
2020/12/20 05:49:23;;;;;;;;;73.75;54.75;;;;;2.71;94.94;101003.91;4953591;28;8874;-63
2020/12/20 05:52:12;;;;;;;;;67.00;50.00;;;;;2.64;95.19;100999.56;4953267;28;8968;-62
2020/12/20 05:54:42;;;;;;;;;67.75;52.50;;;;;2.70;94.74;101010.09;4953510;28;9602;-63
2020/12/20 05:57:14;;;;;;;;;71.50;52.50;;;;;2.76;94.96;101007.41;4953851;28;8857;-63
2020/12/20 05:59:44;;;;;;;;;67.75;50.00;;;;;2.78;94.78;101004.75;4953722;28;8862;-63
2020/12/20 06:02:12;;;;;;;;;70.00;49.00;;;;;2.71;95.10;101008.34;4952301;28;8870;-63
2020/12/20 06:04:41;;;;;;;;;69.25;47.25;;;;;2.78;94.75;101010.91;4953524;28;8850;-63
2020/12/20 06:07:10;;;;;;;;;63.75;47.50;;;;;2.80;94.13;101002.97;4953254;28;8904;-63
2020/12/20 06:09:55;;;;;;;;;83.00;57.75;;;;;2.70;94.78;101004.81;4953415;28;9568;-63
2020/12/20 06:12:25;;;;;;;;;83.50;57.75;;;;;2.71;94.69;101003.91;4951613;29;9598;-63
2020/12/20 06:14:54;;;;;;;;;75.50;54.00;;;;;2.66;95.03;101000.44;4952894;29;8861;-63
2020/12/20 06:17:24;;;;;;;;;75.75;56.00;;;;;2.66;95.10;101007.47;4953266;29;8928;-63
2020/12/20 06:19:56;;;;;;;;;74.50;52.75;;;;;2.67;95.05;101006.63;4952355;29;8980;-63
2020/12/20 06:22:35;;;;;;;;;64.50;48.25;;;;;2.59;95.19;101006.66;4952509;29;8870;-63
2020/12/20 06:25:07;;;;;;;;;70.00;53.00;;;;;2.64;95.09;101010.16;4952685;29;8942;-63
2020/12/20 06:27:36;;;;;;;;;69.00;50.50;;;;;2.63;95.30;101000.44;4952737;28;8858;-63
2020/12/20 06:30:07;;;;;;;;;71.50;47.00;;;;;2.60;95.25;101011.94;4952345;29;8862;-63
2020/12/20 06:32:44;;;;;;;;;80.50;57.25;;;;;2.62;95.33;101011.94;4952897;29;8976;-63
2020/12/20 06:35:27;;;;;;;;;87.50;62.50;;;;;2.63;95.37;101013.69;4935962;28;8851;-63
2020/12/20 06:37:55;;;;;;;;;77.75;53.50;;;;;2.69;95.13;101015.44;4952676;28;8932;-63
2020/12/20 06:40:30;;;;;;;;;74.25;54.00;;;;;2.66;95.37;101015.44;4952261;29;8968;-63
2020/12/20 06:42:58;;;;;;;;;83.00;58.75;;;;;2.67;95.40;101012.78;4951238;29;8878;-62
2020/12/20 06:45:27;;;;;;;;;82.00;59.25;;;;;2.62;95.44;101010.16;4951486;29;8933;-63
2020/12/20 06:48:02;;;;;;;;;71.75;51.50;;;;;2.66;95.51;101019.00;4952965;29;8936;-63
2020/12/20 06:50:44;;;;;;;;;72.50;56.50;;;;;2.57;95.15;101021.69;4952233;29;8884;-63
2020/12/20 06:53:14;;;;;;;;;86.25;56.75;;;;;2.59;95.45;101025.22;4951765;28;8881;-63
2020/12/20 06:55:41;;;;;;;;;94.25;64.75;;;;;2.64;95.43;101018.13;4952732;29;8857;-63
2020/12/20 06:58:19;;;;;;;;;81.75;62.25;;;;;2.61;95.62;101020.81;4952427;29;8862;-62
2020/12/20 07:00:56;;;;;;;;;84.00;58.00;;;;;2.62;95.64;101019.91;4948302;29;8858;-63
2020/12/20 07:03:23;;;;;;;;;65.25;52.00;;;;;2.55;95.64;101018.19;4952196;29;8989;-63
2020/12/20 07:05:54;;;;;;;;;76.25;52.25;;;;;2.58;95.77;101023.44;4952401;29;8973;-63
2020/12/20 07:08:27;;;;;;;;;87.50;60.00;;;;;2.68;95.40;101019.84;4952322;29;8858;-63
2020/12/20 07:10:57;;;;;;;;;74.00;50.75;;;;;2.63;95.52;101033.16;4952507;29;8862;-63
2020/12/20 07:13:39;;;;;;;;;66.75;48.00;;;;;2.57;95.84;101021.69;4952408;29;8876;-63
2020/12/20 07:16:11;;;;;;;;;72.75;51.00;;;;;2.67;95.68;101034.00;4952446;29;8864;-63
2020/12/20 07:18:51;;;;;;;;;85.25;64.00;;;;;2.72;95.19;101028.69;4951322;29;8851;-63
2020/12/20 07:21:23;;;;;;;;;92.50;63.50;;;;;2.71;95.12;101032.19;4951836;29;8860;-63
2020/12/20 07:23:59;;;;;;;;;89.25;63.75;;;;;2.80;95.35;101034.78;4953727;28;8848;-63
2020/12/20 07:26:26;;;;;;;;;92.25;67.25;;;;;2.73;95.26;101033.94;4956180;28;8844;-63
2020/12/20 07:29:02;;;;;;;;;87.50;64.00;;;;;2.61;95.42;101034.06;4954878;28;8832;-63
2020/12/20 07:31:30;;;;;;;;;90.25;62.50;;;;;2.76;95.00;101028.63;4950562;28;8852;-62
2020/12/20 07:33:58;;;;;;;;;99.50;65.50;;;;;2.76;95.18;101028.63;4954830;28;8848;-63
2020/12/20 07:36:26;;;;;;;;;90.50;65.25;;;;;2.73;95.02;101018.03;4955788;28;8914;-63
2020/12/20 07:38:54;;;;;;;;;86.00;58.50;;;;;2.93;95.25;101028.50;4938364;28;8859;-63
2020/12/20 07:41:24;;;;;;;;;83.50;61.75;;;;;2.71;95.15;101025.13;4955766;28;8868;-63
2020/12/20 07:43:53;;;;;;;;;90.25;65.00;;;;;2.73;95.42;101023.34;4955020;28;8848;-63
2020/12/20 07:46:21;;;;;;;;;92.00;65.25;;;;;2.84;95.16;101025.91;4955152;28;8867;-63
2020/12/20 07:48:48;;;;;;;;;88.50;59.50;;;;;2.88;94.61;101034.72;4954545;28;8856;-63
2020/12/20 07:51:20;;;;;;;;;87.75;63.00;;;;;2.86;94.81;101035.59;4954662;28;9645;-63
2020/12/20 07:53:57;;;;;;;;;98.75;69.00;;;;;2.89;94.78;101033.81;4938129;28;9601;-63
2020/12/20 07:56:27;;;;;;;;;83.50;64.25;;;;;2.91;94.49;101037.34;4947675;28;9589;-63
2020/12/20 07:59:12;;;;;;;;;90.75;64.50;;;;;2.93;94.21;101032.91;4954917;28;8970;-63
2020/12/20 08:01:41;;;;;;;;;112.00;78.75;;;;;2.89;94.50;101039.13;4955346;28;8898;-63
2020/12/20 08:04:22;;;;;;;;;93.00;66.25;;;;;2.96;94.66;101040.84;4954050;28;8864;-63
2020/12/20 08:06:52;;;;;;;;;89.25;65.75;;;;;2.90;94.48;101046.19;4951302;28;9612;-63
2020/12/20 08:09:24;;;;;;;;;84.25;61.50;;;;;3.04;93.78;101039.00;4954934;28;8871;-63
2020/12/20 08:11:53;;;;;;;;;89.25;62.50;;;;;3.06;93.66;101037.22;4954798;28;8859;-63
2020/12/20 08:14:22;;;;;;;;;94.00;63.25;;;;;2.99;93.47;101035.50;4953773;28;8880;-63
2020/12/20 08:16:52;;;;;;;;;96.00;67.00;;;;;2.99;94.19;101039.03;4952993;28;8888;-63
2020/12/20 08:19:27;;;;;;;;;86.50;62.50;;;;;2.86;94.00;101043.56;4953338;28;8830;-63
2020/12/20 08:22:14;;;;;;;;;97.50;67.25;;;;;3.05;93.88;101051.38;4970243;28;8861;-63
2020/12/20 08:24:45;;;;;;;;;97.00;68.00;;;;;3.04;93.97;101049.63;4969472;28;9566;-63
2020/12/20 08:27:21;;;;;;;;;95.25;70.25;;;;;2.98;93.84;101049.69;4954551;28;8853;-63
2020/12/20 08:29:54;;;;;;;;;104.00;71.25;;;;;3.10;93.93;101054.84;4954805;28;8841;-63
2020/12/20 08:32:37;;;;;;;;;96.00;70.25;;;;;3.18;93.67;101062.75;4953873;28;8877;-63
2020/12/20 08:35:21;;;;;;;;;105.75;72.75;;;;;3.11;92.99;101051.34;4953088;28;8945;-63
2020/12/20 08:37:58;;;;;;;;;93.00;67.00;;;;;3.18;93.33;101053.00;4948933;28;9582;-63
2020/12/20 08:40:31;;;;;;;;;91.00;68.25;;;;;3.32;92.82;101054.66;4954460;28;8861;-63
2020/12/20 08:43:03;;;;;;;;;97.00;71.00;;;;;3.16;92.73;101052.19;4954222;28;8877;-63
2020/12/20 08:45:31;;;;;;;;;91.50;66.50;;;;;3.27;92.39;101058.25;4969015;28;8880;-63
2020/12/20 08:48:03;;;;;;;;;109.50;75.25;;;;;3.21;93.03;101058.31;4954613;28;8857;-63
2020/12/20 08:50:31;;;;;;;;;97.00;69.25;;;;;3.25;92.65;101059.16;4954110;28;8876;-63
2020/12/20 08:53:05;;;;;;;;;84.25;62.25;;;;;3.15;93.17;101057.47;4954371;28;8880;-63
2020/12/20 08:55:33;;;;;;;;;78.25;54.50;;;;;3.16;92.67;101060.13;4952798;28;8867;-63
2020/12/20 08:58:07;;;;;;;;;87.25;59.25;;;;;3.20;92.35;101050.34;4968983;28;8898;-63
2020/12/20 09:00:35;;;;;;;;;88.25;65.00;;;;;3.25;92.06;101054.72;4953448;28;8842;-63
2020/12/20 09:03:05;;;;;;;;;91.50;67.25;;;;;3.29;92.14;101052.91;4968565;28;8857;-63
2020/12/20 09:05:35;;;;;;;;;106.25;78.25;;;;;3.23;91.60;101051.19;4953662;28;8833;-63
2020/12/20 09:08:05;;;;;;;;;101.25;73.25;;;;;3.32;91.61;101044.94;4952571;28;8864;-63
2020/12/20 09:10:34;;;;;;;;;95.75;69.75;;;;;3.34;91.16;101048.44;4953710;28;8856;-63
2020/12/20 09:13:07;;;;;;;;;92.00;66.25;;;;;3.38;91.18;101044.00;4954215;28;8923;-63
2020/12/20 09:15:36;;;;;;;;;89.50;62.75;;;;;3.41;90.63;101047.50;4952556;28;8897;-63
2020/12/20 09:18:21;;;;;;;;;87.25;65.00;;;;;3.40;90.87;101051.06;4953719;28;8900;-63
2020/12/20 09:20:48;;;;;;;;;88.25;64.75;;;;;3.39;90.49;101054.59;4950002;28;8863;-63
2020/12/20 09:23:20;;;;;;;;;69.50;56.50;;;;;3.33;90.42;101051.13;4952348;28;8878;-63
2020/12/20 09:25:48;;;;;;;;;87.75;61.25;;;;;3.35;90.97;101044.03;4953280;28;9618;-63
2020/12/20 09:28:26;;;;;;;;;79.00;59.75;;;;;3.53;90.53;101046.50;4953353;28;8879;-63
2020/12/20 09:30:55;;;;;;;;;98.00;67.00;;;;;3.46;89.56;101039.47;4948953;28;8837;-63
2020/12/20 09:33:31;;;;;;;;;87.00;63.25;;;;;3.45;89.48;101040.34;4953714;28;8947;-63
2020/12/20 09:36:19;;;;;;;;;89.75;63.00;;;;;3.34;89.68;101039.59;4953247;28;8919;-63
2020/12/20 09:39:06;;;;;;;;;79.75;60.25;;;;;3.70;89.75;101041.84;4952260;28;9717;-62
2020/12/20 09:41:33;;;;;;;;;84.50;61.75;;;;;3.47;89.32;101038.56;4949307;28;9626;-62
2020/12/20 09:44:00;;;;;;;;;83.75;60.00;;;;;3.56;89.29;101032.31;4951944;28;8881;-63
2020/12/20 09:46:32;;;;;;;;;80.75;59.25;;;;;3.65;89.48;101033.06;4951748;28;8975;-62
2020/12/20 09:49:00;;;;;;;;;78.75;55.25;;;;;3.51;89.41;101024.38;4952186;28;8857;-62
2020/12/20 09:51:30;;;;;;;;;105.50;75.00;;;;;3.61;88.52;101026.03;4953211;28;8880;-62
2020/12/20 09:53:57;;;;;;;;;93.50;64.75;;;;;3.52;89.40;101024.34;4953130;28;8959;-62
2020/12/20 09:56:23;;;;;;;;;108.50;74.25;;;;;3.67;89.42;101025.97;4953370;28;8849;-62
2020/12/20 09:58:50;;;;;;;;;133.25;100.00;;;;;3.72;88.33;101028.56;4966367;28;8892;-62
2020/12/20 10:01:22;;;;;;;;;88.50;66.00;;;;;3.66;88.73;101018.91;4951345;28;8872;-62
2020/12/20 10:03:50;;;;;;;;;94.50;65.25;;;;;3.73;88.05;101020.56;4951477;28;8896;-62
2020/12/20 10:06:17;;;;;;;;;82.25;61.75;;;;;3.76;87.15;101029.41;4951843;28;8849;-62
2020/12/20 10:08:46;;;;;;;;;82.75;63.25;;;;;3.71;88.10;101029.44;4966823;28;9693;-63
2020/12/20 10:11:19;;;;;;;;;79.75;57.50;;;;;3.94;88.38;101024.72;4950864;28;8892;-62
2020/12/20 10:13:46;;;;;;;;;78.25;58.25;;;;;3.88;88.89;101026.59;4966426;28;8858;-62
2020/12/20 10:16:20;;;;;;;;;90.00;68.75;;;;;3.87;88.09;101027.47;4951356;28;8874;-62
2020/12/20 10:18:48;;;;;;;;;71.75;54.00;;;;;3.92;87.16;101020.34;4953841;28;8844;-62
2020/12/20 10:21:15;;;;;;;;;83.25;59.75;;;;;3.85;86.71;101024.00;4942955;29;8869;-62
2020/12/20 10:23:48;;;;;;;;;74.75;52.50;;;;;3.80;86.44;101025.81;4947497;29;8870;-62
2020/12/20 10:26:15;;;;;;;;;90.25;64.50;;;;;3.92;86.97;101018.59;4950163;29;8862;-62
2020/12/20 10:28:42;;;;;;;;;122.00;98.50;;;;;3.94;87.93;101024.72;4950141;29;8942;-62
2020/12/20 10:31:11;;;;;;;;;80.25;56.75;;;;;3.95;86.29;101015.00;4950278;29;8938;-62
2020/12/20 10:33:37;;;;;;;;;77.25;58.25;;;;;3.93;86.47;101019.47;4949612;29;8864;-61
2020/12/20 10:36:05;;;;;;;;;89.75;63.25;;;;;3.96;86.65;101016.75;4949430;29;9869;-61
2020/12/20 10:38:31;;;;;;;;;64.75;46.75;;;;;4.02;85.39;101015.78;4950411;29;8850;-61
2020/12/20 10:40:58;;;;;;;;;72.00;55.00;;;;;3.94;85.88;101013.22;4950809;28;8961;-61
2020/12/20 10:43:25;;;;;;;;;64.25;47.75;;;;;4.09;86.17;101013.03;4948967;29;8871;-61
2020/12/20 10:45:55;;;;;;;;;73.25;52.25;;;;;3.95;85.85;101007.03;4933323;29;8868;-61
2020/12/20 10:48:22;;;;;;;;;69.75;49.25;;;;;3.92;84.71;101012.38;4949010;29;8873;-62
2020/12/20 10:50:49;;;;;;;;;65.50;50.50;;;;;3.95;85.97;101004.38;4950544;29;8838;-62
2020/12/20 10:53:16;;;;;;;;;71.50;51.75;;;;;4.14;85.04;101011.19;4951078;29;8896;-61
2020/12/20 10:55:43;;;;;;;;;72.25;57.25;;;;;3.98;84.58;101004.34;4951478;29;8916;-61
2020/12/20 10:58:10;;;;;;;;;69.00;50.00;;;;;4.05;85.67;100997.16;4953922;28;8854;-61
2020/12/20 11:00:37;;;;;;;;;70.00;52.50;;;;;4.00;85.13;100993.66;4955237;28;8866;-61
2020/12/20 11:03:05;;;;;;;;;65.75;49.50;;;;;3.98;84.21;100991.06;4954846;28;8927;-62
2020/12/20 11:05:32;;;;;;;;;60.00;49.25;;;;;3.96;84.41;100990.19;4954466;28;8862;-61
2020/12/20 11:07:59;;;;;;;;;65.50;49.50;;;;;4.03;83.64;100994.53;4954295;28;8861;-61
2020/12/20 11:10:26;;;;;;;;;67.25;52.25;;;;;4.01;83.70;100996.31;4954833;28;8968;-61
2020/12/20 11:12:53;;;;;;;;;65.25;47.75;;;;;3.96;84.19;100996.38;4954822;28;8889;-61
2020/12/20 11:15:20;;;;;;;;;74.25;51.75;;;;;3.85;85.40;100998.31;4954129;28;8982;-61
2020/12/20 11:17:47;;;;;;;;;83.25;59.50;;;;;4.34;85.78;101002.91;4954314;28;8863;-60
2020/12/20 11:20:14;;;;;;;;;89.75;64.25;;;;;4.14;84.75;100995.25;4953329;28;8848;-60
2020/12/20 11:22:43;;;;;;;;;74.75;58.25;;;;;3.98;85.25;100999.03;4954483;28;9579;-61
2020/12/20 11:25:10;;;;;;;;;67.75;54.25;;;;;4.15;85.79;100993.47;4953953;28;8859;-60
2020/12/20 11:27:37;;;;;;;;;72.25;55.50;;;;;4.00;86.84;100991.88;4953960;28;8974;-61
2020/12/20 11:30:04;;;;;;;;;72.75;52.50;;;;;4.03;86.10;100997.19;4962355;28;8854;-61
2020/12/20 11:32:35;;;;;;;;;73.75;55.25;;;;;4.01;85.90;100988.34;4954980;28;8961;-61
2020/12/20 11:35:04;;;;;;;;;84.75;58.00;;;;;4.13;85.76;100987.28;4955043;28;8848;-61
2020/12/20 11:37:32;;;;;;;;;82.25;53.75;;;;;4.04;86.12;100982.97;4953954;28;8871;-62